sensor_id;sensor_type;location;lat;lon;timestamp;pressure;altitude;pressure_sealevel;temperature;humidity
46614;BME280;32338;50.430;6.806;2022-07-06T00:01:46;97554.47;;;12.85;89.03
46614;BME280;32338;50.430;6.806;2022-07-06T00:04:13;97550.63;;;12.88;89.00
46614;BME280;32338;50.430;6.806;2022-07-06T00:06:40;97551.25;;;12.90;89.28
46614;BME280;32338;50.430;6.806;2022-07-06T00:09:07;97547.41;;;12.92;87.82
46614;BME280;32338;50.430;6.806;2022-07-06T00:11:34;97549.88;;;12.94;87.21
46614;BME280;32338;50.430;6.806;2022-07-06T00:14:00;97553.34;;;12.94;88.24
46614;BME280;32338;50.430;6.806;2022-07-06T00:16:27;97549.88;;;12.94;87.94
46614;BME280;32338;50.430;6.806;2022-07-06T00:18:55;97550.41;;;12.89;86.66
46614;BME280;32338;50.430;6.806;2022-07-06T00:21:22;97546.31;;;12.87;87.13
46614;BME280;32338;50.430;6.806;2022-07-06T00:23:49;97556.38;;;12.76;86.43
46614;BME280;32338;50.430;6.806;2022-07-06T00:26:17;97553.72;;;12.61;88.66
46614;BME280;32338;50.430;6.806;2022-07-06T00:28:43;97551.44;;;12.58;88.63
46614;BME280;32338;50.430;6.806;2022-07-06T00:31:10;97551.53;;;12.65;88.75
46614;BME280;32338;50.430;6.806;2022-07-06T00:33:37;97553.25;;;12.58;88.25
46614;BME280;32338;50.430;6.806;2022-07-06T00:36:05;97553.81;;;12.53;89.26
46614;BME280;32338;50.430;6.806;2022-07-06T00:38:32;97546.03;;;12.52;87.88
46614;BME280;32338;50.430;6.806;2022-07-06T00:40:59;97549.59;;;12.44;87.66
46614;BME280;32338;50.430;6.806;2022-07-06T00:43:26;97553.78;;;12.38;86.31
46614;BME280;32338;50.430;6.806;2022-07-06T00:45:52;97551.88;;;12.32;87.62
46614;BME280;32338;50.430;6.806;2022-07-06T00:48:19;97554.75;;;12.22;86.73
46614;BME280;32338;50.430;6.806;2022-07-06T00:50:46;97541.22;;;12.17;88.30
46614;BME280;32338;50.430;6.806;2022-07-06T00:53:14;97553.16;;;12.13;89.04
46614;BME280;32338;50.430;6.806;2022-07-06T00:55:41;97556.19;;;12.10;88.85
46614;BME280;32338;50.430;6.806;2022-07-06T00:58:09;97544.75;;;12.09;90.22
46614;BME280;32338;50.430;6.806;2022-07-06T01:00:35;97537.38;;;12.05;89.97
46614;BME280;32338;50.430;6.806;2022-07-06T01:03:04;97545.84;;;12.00;90.60
46614;BME280;32338;50.430;6.806;2022-07-06T01:05:30;97546.31;;;12.04;90.63
46614;BME280;32338;50.430;6.806;2022-07-06T01:07:57;97539.16;;;12.04;90.17
46614;BME280;32338;50.430;6.806;2022-07-06T01:10:27;97544.56;;;11.96;89.47
46614;BME280;32338;50.430;6.806;2022-07-06T01:12:54;97541.41;;;11.92;91.36
46614;BME280;32338;50.430;6.806;2022-07-06T01:15:24;97539.34;;;11.79;91.98
46614;BME280;32338;50.430;6.806;2022-07-06T01:17:51;97541.63;;;11.82;92.26
46614;BME280;32338;50.430;6.806;2022-07-06T01:20:20;97545.75;;;11.85;88.58
46614;BME280;32338;50.430;6.806;2022-07-06T01:22:49;97538.19;;;11.82;90.94
46614;BME280;32338;50.430;6.806;2022-07-06T01:25:16;97539.66;;;11.84;88.40
46614;BME280;32338;50.430;6.806;2022-07-06T01:27:44;97542.63;;;11.81;89.41
46614;BME280;32338;50.430;6.806;2022-07-06T01:30:12;97543.34;;;11.75;89.40
46614;BME280;32338;50.430;6.806;2022-07-06T01:32:39;97545.00;;;11.53;90.63
46614;BME280;32338;50.430;6.806;2022-07-06T01:35:08;97537.31;;;11.35;92.58
46614;BME280;32338;50.430;6.806;2022-07-06T01:37:37;97543.50;;;11.19;94.66
46614;BME280;32338;50.430;6.806;2022-07-06T01:40:07;97538.50;;;11.24;95.18
46614;BME280;32338;50.430;6.806;2022-07-06T01:42:34;97539.53;;;11.23;93.08
46614;BME280;32338;50.430;6.806;2022-07-06T01:45:02;97541.16;;;11.24;90.84
46614;BME280;32338;50.430;6.806;2022-07-06T01:47:29;97540.91;;;11.11;94.75
46614;BME280;32338;50.430;6.806;2022-07-06T01:49:58;97546.03;;;11.04;97.52
46614;BME280;32338;50.430;6.806;2022-07-06T01:52:25;97540.22;;;11.17;95.55
46614;BME280;32338;50.430;6.806;2022-07-06T01:54:54;97542.66;;;11.27;93.54
46614;BME280;32338;50.430;6.806;2022-07-06T01:57:20;97545.16;;;11.20;93.16
46614;BME280;32338;50.430;6.806;2022-07-06T01:59:47;97547.97;;;11.18;92.40
46614;BME280;32338;50.430;6.806;2022-07-06T02:02:14;97545.50;;;11.17;91.80
46614;BME280;32338;50.430;6.806;2022-07-06T02:04:42;97544.53;;;11.10;92.21
46614;BME280;32338;50.430;6.806;2022-07-06T02:07:09;97541.72;;;11.11;92.96
46614;BME280;32338;50.430;6.806;2022-07-06T02:09:35;97539.75;;;11.05;94.71
46614;BME280;32338;50.430;6.806;2022-07-06T02:12:05;97544.94;;;10.98;95.77
46614;BME280;32338;50.430;6.806;2022-07-06T02:14:31;97544.94;;;10.90;95.78
46614;BME280;32338;50.430;6.806;2022-07-06T02:16:58;97539.66;;;10.90;95.52
46614;BME280;32338;50.430;6.806;2022-07-06T02:19:25;97547.16;;;10.78;95.61
46614;BME280;32338;50.430;6.806;2022-07-06T02:21:51;97546.34;;;10.61;97.62
46614;BME280;32338;50.430;6.806;2022-07-06T02:24:18;97543.72;;;10.61;97.08
46614;BME280;32338;50.430;6.806;2022-07-06T02:26:45;97547.03;;;10.55;95.98
46614;BME280;32338;50.430;6.806;2022-07-06T02:29:13;97542.91;;;10.52;97.18
46614;BME280;32338;50.430;6.806;2022-07-06T02:31:40;97538.63;;;10.51;94.44
46614;BME280;32338;50.430;6.806;2022-07-06T02:34:06;97541.94;;;10.45;93.09
46614;BME280;32338;50.430;6.806;2022-07-06T02:36:33;97535.84;;;10.45;93.62
46614;BME280;32338;50.430;6.806;2022-07-06T02:39:00;97530.06;;;10.41;93.18
46614;BME280;32338;50.430;6.806;2022-07-06T02:41:26;97531.41;;;10.37;95.11
46614;BME280;32338;50.430;6.806;2022-07-06T02:43:53;97528.56;;;10.30;96.13
46614;BME280;32338;50.430;6.806;2022-07-06T02:46:21;97523.78;;;10.26;94.67
46614;BME280;32338;50.430;6.806;2022-07-06T02:48:48;97524.63;;;10.18;97.44
46614;BME280;32338;50.430;6.806;2022-07-06T02:51:14;97520.50;;;10.15;95.47
46614;BME280;32338;50.430;6.806;2022-07-06T02:53:41;97515.56;;;10.20;95.46
46614;BME280;32338;50.430;6.806;2022-07-06T02:56:08;97521.31;;;10.16;97.58
46614;BME280;32338;50.430;6.806;2022-07-06T02:58:34;97520.16;;;10.18;99.41
46614;BME280;32338;50.430;6.806;2022-07-06T03:01:01;97515.69;;;10.19;97.46
46614;BME280;32338;50.430;6.806;2022-07-06T03:03:29;97524.31;;;9.96;99.17
46614;BME280;32338;50.430;6.806;2022-07-06T03:05:56;97529.75;;;9.86;100.00
46614;BME280;32338;50.430;6.806;2022-07-06T03:08:23;97531.09;;;9.90;100.00
46614;BME280;32338;50.430;6.806;2022-07-06T03:10:49;97523.97;;;9.99;100.00
46614;BME280;32338;50.430;6.806;2022-07-06T03:13:16;97530.41;;;9.97;99.34
46614;BME280;32338;50.430;6.806;2022-07-06T03:15:43;97529.25;;;9.91;98.73
46614;BME280;32338;50.430;6.806;2022-07-06T03:18:09;97534.53;;;9.83;99.43
46614;BME280;32338;50.430;6.806;2022-07-06T03:20:37;97530.56;;;9.79;100.00
46614;BME280;32338;50.430;6.806;2022-07-06T03:23:04;97539.16;;;9.81;100.00
46614;BME280;32338;50.430;6.806;2022-07-06T03:25:31;97539.31;;;9.79;99.48
46614;BME280;32338;50.430;6.806;2022-07-06T03:27:58;97546.25;;;9.80;98.93
46614;BME280;32338;50.430;6.806;2022-07-06T03:30:25;97551.00;;;9.68;100.00
46614;BME280;32338;50.430;6.806;2022-07-06T03:32:52;97549.19;;;9.69;100.00
46614;BME280;32338;50.430;6.806;2022-07-06T03:35:19;97555.97;;;9.63;100.00
46614;BME280;32338;50.430;6.806;2022-07-06T03:37:47;97545.25;;;9.56;100.00
46614;BME280;32338;50.430;6.806;2022-07-06T03:40:14;97549.38;;;9.59;100.00
46614;BME280;32338;50.430;6.806;2022-07-06T03:42:40;97541.78;;;9.64;100.00
46614;BME280;32338;50.430;6.806;2022-07-06T03:45:08;97538.97;;;9.66;100.00
46614;BME280;32338;50.430;6.806;2022-07-06T03:47:35;97545.72;;;9.68;100.00
46614;BME280;32338;50.430;6.806;2022-07-06T03:50:02;97545.09;;;9.74;100.00
46614;BME280;32338;50.430;6.806;2022-07-06T03:52:29;97543.78;;;9.70;100.00
46614;BME280;32338;50.430;6.806;2022-07-06T03:54:57;97543.59;;;9.72;100.00
46614;BME280;32338;50.430;6.806;2022-07-06T03:57:24;97549.19;;;9.69;100.00
46614;BME280;32338;50.430;6.806;2022-07-06T03:59:51;97545.44;;;9.71;100.00
46614;BME280;32338;50.430;6.806;2022-07-06T04:02:18;97541.63;;;9.74;100.00
46614;BME280;32338;50.430;6.806;2022-07-06T04:04:44;97551.81;;;9.69;100.00
46614;BME280;32338;50.430;6.806;2022-07-06T04:07:11;97560.56;;;9.78;100.00
46614;BME280;32338;50.430;6.806;2022-07-06T04:09:39;97562.25;;;9.87;100.00
46614;BME280;32338;50.430;6.806;2022-07-06T04:12:07;97561.25;;;9.96;100.00
46614;BME280;32338;50.430;6.806;2022-07-06T04:14:34;97560.28;;;10.05;100.00
46614;BME280;32338;50.430;6.806;2022-07-06T04:17:01;97563.25;;;10.11;100.00
46614;BME280;32338;50.430;6.806;2022-07-06T04:19:48;97560.91;;;10.07;100.00
46614;BME280;32338;50.430;6.806;2022-07-06T04:22:15;97562.25;;;10.20;100.00
46614;BME280;32338;50.430;6.806;2022-07-06T04:24:42;97568.50;;;10.19;100.00
46614;BME280;32338;50.430;6.806;2022-07-06T04:27:10;97566.69;;;10.28;100.00
46614;BME280;32338;50.430;6.806;2022-07-06T04:29:37;97566.84;;;10.26;100.00
46614;BME280;32338;50.430;6.806;2022-07-06T04:32:04;97566.38;;;10.39;100.00
46614;BME280;32338;50.430;6.806;2022-07-06T04:34:31;97575.63;;;10.43;100.00
46614;BME280;32338;50.430;6.806;2022-07-06T04:36:58;97568.69;;;10.42;100.00
46614;BME280;32338;50.430;6.806;2022-07-06T04:39:24;97579.56;;;10.39;100.00
46614;BME280;32338;50.430;6.806;2022-07-06T04:41:51;97573.63;;;10.45;100.00
46614;BME280;32338;50.430;6.806;2022-07-06T04:44:19;97572.97;;;10.51;100.00
46614;BME280;32338;50.430;6.806;2022-07-06T04:46:46;97574.13;;;10.57;100.00
46614;BME280;32338;50.430;6.806;2022-07-06T04:49:12;97578.59;;;10.57;100.00
46614;BME280;32338;50.430;6.806;2022-07-06T04:51:39;97574.75;;;10.67;100.00
46614;BME280;32338;50.430;6.806;2022-07-06T04:54:06;97573.59;;;10.70;100.00
46614;BME280;32338;50.430;6.806;2022-07-06T04:56:32;97573.25;;;10.73;100.00
46614;BME280;32338;50.430;6.806;2022-07-06T04:58:59;97572.91;;;10.84;100.00
46614;BME280;32338;50.430;6.806;2022-07-06T05:01:27;97579.63;;;10.95;100.00
46614;BME280;32338;50.430;6.806;2022-07-06T05:03:54;97576.28;;;11.01;100.00
46614;BME280;32338;50.430;6.806;2022-07-06T05:06:20;97581.81;;;10.92;100.00
46614;BME280;32338;50.430;6.806;2022-07-06T05:08:47;97584.28;;;10.93;100.00
46614;BME280;32338;50.430;6.806;2022-07-06T05:11:14;97589.81;;;11.07;100.00
46614;BME280;32338;50.430;6.806;2022-07-06T05:13:41;97585.00;;;11.18;100.00
46614;BME280;32338;50.430;6.806;2022-07-06T05:16:08;97594.00;;;11.41;100.00
46614;BME280;32338;50.430;6.806;2022-07-06T05:18:36;97581.75;;;11.40;100.00
46614;BME280;32338;50.430;6.806;2022-07-06T05:21:03;97585.22;;;11.40;100.00
46614;BME280;32338;50.430;6.806;2022-07-06T05:23:30;97594.59;;;11.51;100.00
46614;BME280;32338;50.430;6.806;2022-07-06T05:25:57;97586.63;;;11.59;100.00
46614;BME280;32338;50.430;6.806;2022-07-06T05:28:23;97595.50;;;11.66;100.00
46614;BME280;32338;50.430;6.806;2022-07-06T05:30:50;97592.41;;;11.86;100.00
46614;BME280;32338;50.430;6.806;2022-07-06T05:33:17;97593.34;;;11.93;100.00
46614;BME280;32338;50.430;6.806;2022-07-06T05:35:45;97599.25;;;12.04;100.00
46614;BME280;32338;50.430;6.806;2022-07-06T05:38:12;97591.13;;;12.05;100.00
46614;BME280;32338;50.430;6.806;2022-07-06T05:40:38;97590.31;;;12.05;100.00
46614;BME280;32338;50.430;6.806;2022-07-06T05:43:05;97589.19;;;11.99;100.00
46614;BME280;32338;50.430;6.806;2022-07-06T05:45:32;97587.38;;;11.99;100.00
46614;BME280;32338;50.430;6.806;2022-07-06T05:47:58;97587.03;;;12.03;100.00
46614;BME280;32338;50.430;6.806;2022-07-06T05:50:44;97586.22;;;12.02;100.00
46614;BME280;32338;50.430;6.806;2022-07-06T05:53:11;97591.09;;;12.13;100.00
46614;BME280;32338;50.430;6.806;2022-07-06T05:55:37;97597.19;;;12.14;100.00
46614;BME280;32338;50.430;6.806;2022-07-06T05:58:04;97600.03;;;12.12;100.00
46614;BME280;32338;50.430;6.806;2022-07-06T06:00:31;97594.44;;;12.07;100.00
46614;BME280;32338;50.430;6.806;2022-07-06T06:02:59;97601.09;;;12.03;100.00
46614;BME280;32338;50.430;6.806;2022-07-06T06:05:26;97600.91;;;12.05;100.00
46614;BME280;32338;50.430;6.806;2022-07-06T06:07:54;97604.81;;;12.17;100.00
46614;BME280;32338;50.430;6.806;2022-07-06T06:10:21;97595.50;;;12.21;100.00
46614;BME280;32338;50.430;6.806;2022-07-06T06:12:48;97594.22;;;12.17;100.00
46614;BME280;32338;50.430;6.806;2022-07-06T06:15:16;97590.09;;;12.14;100.00
46614;BME280;32338;50.430;6.806;2022-07-06T06:17:43;97605.38;;;12.27;100.00
46614;BME280;32338;50.430;6.806;2022-07-06T06:20:12;97607.19;;;12.27;100.00
46614;BME280;32338;50.430;6.806;2022-07-06T06:22:46;97616.72;;;12.36;100.00
46614;BME280;32338;50.430;6.806;2022-07-06T06:25:14;97606.81;;;12.53;100.00
46614;BME280;32338;50.430;6.806;2022-07-06T06:27:41;97612.88;;;12.62;100.00
46614;BME280;32338;50.430;6.806;2022-07-06T06:30:09;97612.41;;;12.58;98.40
46614;BME280;32338;50.430;6.806;2022-07-06T06:32:36;97617.44;;;12.53;100.00
46614;BME280;32338;50.430;6.806;2022-07-06T06:35:03;97621.63;;;12.62;100.00
46614;BME280;32338;50.430;6.806;2022-07-06T06:37:30;97631.25;;;12.63;99.91
46614;BME280;32338;50.430;6.806;2022-07-06T06:39:57;97610.78;;;12.72;100.00
46614;BME280;32338;50.430;6.806;2022-07-06T06:42:25;97617.63;;;12.81;96.18
46614;BME280;32338;50.430;6.806;2022-07-06T06:44:51;97626.13;;;12.77;95.99
46614;BME280;32338;50.430;6.806;2022-07-06T06:47:18;97618.31;;;12.60;98.22
46614;BME280;32338;50.430;6.806;2022-07-06T06:49:45;97617.25;;;12.55;98.29
46614;BME280;32338;50.430;6.806;2022-07-06T06:52:12;97622.84;;;12.75;99.12
46614;BME280;32338;50.430;6.806;2022-07-06T06:54:39;97619.75;;;12.86;96.00
46614;BME280;32338;50.430;6.806;2022-07-06T06:57:05;97616.00;;;12.95;97.39
46614;BME280;32338;50.430;6.806;2022-07-06T06:59:34;97622.22;;;13.18;94.54
46614;BME280;32338;50.430;6.806;2022-07-06T07:02:01;97620.22;;;13.20;92.82
46614;BME280;32338;50.430;6.806;2022-07-06T07:04:27;97623.03;;;13.33;94.28
46614;BME280;32338;50.430;6.806;2022-07-06T07:06:56;97626.06;;;13.30;92.98
46614;BME280;32338;50.430;6.806;2022-07-06T07:09:24;97634.03;;;13.30;92.25
46614;BME280;32338;50.430;6.806;2022-07-06T07:11:50;97637.78;;;13.21;91.86
46614;BME280;32338;50.430;6.806;2022-07-06T07:14:17;97638.06;;;12.96;90.99
46614;BME280;32338;50.430;6.806;2022-07-06T07:16:46;97636.00;;;12.83;91.87
46614;BME280;32338;50.430;6.806;2022-07-06T07:19:12;97633.34;;;12.83;93.12
46614;BME280;32338;50.430;6.806;2022-07-06T07:21:39;97634.19;;;12.84;93.25
46614;BME280;32338;50.430;6.806;2022-07-06T07:24:08;97636.22;;;12.96;94.69
46614;BME280;32338;50.430;6.806;2022-07-06T07:26:35;97643.63;;;12.86;94.95
46614;BME280;32338;50.430;6.806;2022-07-06T07:29:03;97646.25;;;12.86;97.91
46614;BME280;32338;50.430;6.806;2022-07-06T07:31:29;97639.69;;;12.97;98.01
46614;BME280;32338;50.430;6.806;2022-07-06T07:33:58;97641.72;;;13.10;94.56
46614;BME280;32338;50.430;6.806;2022-07-06T07:36:25;97637.22;;;13.25;94.10
46614;BME280;32338;50.430;6.806;2022-07-06T07:38:52;97641.06;;;13.53;89.54
46614;BME280;32338;50.430;6.806;2022-07-06T07:41:18;97631.97;;;13.62;89.81
46614;BME280;32338;50.430;6.806;2022-07-06T07:43:45;97634.94;;;13.67;89.51
46614;BME280;32338;50.430;6.806;2022-07-06T07:46:12;97641.59;;;13.63;89.61
46614;BME280;32338;50.430;6.806;2022-07-06T07:48:39;97642.78;;;13.60;85.74
46614;BME280;32338;50.430;6.806;2022-07-06T07:51:07;97636.75;;;13.67;87.18
46614;BME280;32338;50.430;6.806;2022-07-06T07:53:34;97640.25;;;13.67;88.70
46614;BME280;32338;50.430;6.806;2022-07-06T07:56:03;97634.59;;;13.77;87.89
46614;BME280;32338;50.430;6.806;2022-07-06T07:58:33;97637.06;;;13.93;86.81
46614;BME280;32338;50.430;6.806;2022-07-06T08:00:59;97637.16;;;13.85;81.01
46614;BME280;32338;50.430;6.806;2022-07-06T08:03:26;97635.22;;;13.94;82.03
46614;BME280;32338;50.430;6.806;2022-07-06T08:05:57;97642.22;;;13.80;83.62
46614;BME280;32338;50.430;6.806;2022-07-06T08:08:30;97639.06;;;13.91;82.53
46614;BME280;32338;50.430;6.806;2022-07-06T08:10:57;97639.44;;;13.88;87.20
46614;BME280;32338;50.430;6.806;2022-07-06T08:13:28;97633.09;;;13.89;85.93
46614;BME280;32338;50.430;6.806;2022-07-06T08:15:57;97637.63;;;14.10;85.27
46614;BME280;32338;50.430;6.806;2022-07-06T08:18:28;97641.94;;;14.11;88.22
46614;BME280;32338;50.430;6.806;2022-07-06T08:20:57;97643.38;;;14.36;86.36
46614;BME280;32338;50.430;6.806;2022-07-06T08:23:24;97647.94;;;14.42;80.67
46614;BME280;32338;50.430;6.806;2022-07-06T08:25:52;97642.84;;;14.47;80.67
46614;BME280;32338;50.430;6.806;2022-07-06T08:28:19;97639.78;;;14.43;84.18
46614;BME280;32338;50.430;6.806;2022-07-06T08:30:46;97649.22;;;14.46;84.22
46614;BME280;32338;50.430;6.806;2022-07-06T08:33:13;97645.84;;;14.37;80.45
46614;BME280;32338;50.430;6.806;2022-07-06T08:46:00;97635.19;;;14.81;81.52
46614;BME280;32338;50.430;6.806;2022-07-06T08:48:57;97633.97;;;14.83;76.84
46614;BME280;32338;50.430;6.806;2022-07-06T08:52:05;97635.63;;;14.84;78.27
46614;BME280;32338;50.430;6.806;2022-07-06T08:54:38;97630.53;;;14.89;78.45
46614;BME280;32338;50.430;6.806;2022-07-06T08:57:08;97631.72;;;14.80;76.70
46614;BME280;32338;50.430;6.806;2022-07-06T08:59:35;97644.09;;;14.66;75.38
46614;BME280;32338;50.430;6.806;2022-07-06T09:02:15;97639.44;;;14.53;80.76
46614;BME280;32338;50.430;6.806;2022-07-06T09:05:02;97639.03;;;14.50;79.92
46614;BME280;32338;50.430;6.806;2022-07-06T09:07:47;97638.50;;;14.39;81.08
46614;BME280;32338;50.430;6.806;2022-07-06T09:10:19;97640.53;;;14.37;79.79
46614;BME280;32338;50.430;6.806;2022-07-06T09:12:47;97635.53;;;14.27;78.63
46614;BME280;32338;50.430;6.806;2022-07-06T09:15:36;97628.06;;;14.38;79.33
46614;BME280;32338;50.430;6.806;2022-07-06T09:21:46;97638.19;;;14.49;80.78
46614;BME280;32338;50.430;6.806;2022-07-06T09:24:35;97647.75;;;14.65;78.45
46614;BME280;32338;50.430;6.806;2022-07-06T09:27:32;97645.63;;;14.82;78.86
46614;BME280;32338;50.430;6.806;2022-07-06T09:30:17;97635.66;;;14.91;76.75
46614;BME280;32338;50.430;6.806;2022-07-06T09:32:54;97634.06;;;14.97;77.55
46614;BME280;32338;50.430;6.806;2022-07-06T09:35:37;97630.84;;;15.08;75.95
46614;BME280;32338;50.430;6.806;2022-07-06T09:38:10;97635.28;;;15.36;75.20
46614;BME280;32338;50.430;6.806;2022-07-06T09:40:38;97641.72;;;15.48;71.06
46614;BME280;32338;50.430;6.806;2022-07-06T09:43:10;97644.66;;;15.60;73.14
46614;BME280;32338;50.430;6.806;2022-07-06T09:45:39;97648.53;;;15.64;71.11
46614;BME280;32338;50.430;6.806;2022-07-06T09:48:08;97646.09;;;15.63;73.37
46614;BME280;32338;50.430;6.806;2022-07-06T09:50:38;97650.75;;;15.54;70.71
46614;BME280;32338;50.430;6.806;2022-07-06T09:53:05;97647.09;;;15.55;71.27
46614;BME280;32338;50.430;6.806;2022-07-06T09:55:34;97648.03;;;15.47;76.23
46614;BME280;32338;50.430;6.806;2022-07-06T09:58:00;97645.00;;;15.50;70.00
46614;BME280;32338;50.430;6.806;2022-07-06T10:00:27;97641.47;;;15.43;73.76
46614;BME280;32338;50.430;6.806;2022-07-06T10:02:54;97637.59;;;15.46;73.41
46614;BME280;32338;50.430;6.806;2022-07-06T10:05:21;97645.50;;;15.74;73.83
46614;BME280;32338;50.430;6.806;2022-07-06T10:07:54;97650.84;;;15.74;69.61
46614;BME280;32338;50.430;6.806;2022-07-06T10:10:23;97648.00;;;15.82;69.36
46614;BME280;32338;50.430;6.806;2022-07-06T10:12:54;97644.97;;;15.92;69.98
46614;BME280;32338;50.430;6.806;2022-07-06T10:15:22;97647.84;;;15.97;67.96
46614;BME280;32338;50.430;6.806;2022-07-06T10:17:51;97642.13;;;16.00;67.76
46614;BME280;32338;50.430;6.806;2022-07-06T10:20:18;97635.78;;;16.01;71.91
46614;BME280;32338;50.430;6.806;2022-07-06T10:22:45;97644.41;;;16.10;66.41
46614;BME280;32338;50.430;6.806;2022-07-06T10:25:14;97642.94;;;15.87;65.20
46614;BME280;32338;50.430;6.806;2022-07-06T10:27:42;97648.59;;;15.78;69.15
46614;BME280;32338;50.430;6.806;2022-07-06T10:30:12;97646.47;;;15.60;69.49
46614;BME280;32338;50.430;6.806;2022-07-06T10:32:39;97645.16;;;15.84;68.30
46614;BME280;32338;50.430;6.806;2022-07-06T10:35:08;97648.28;;;16.01;66.46
46614;BME280;32338;50.430;6.806;2022-07-06T10:37:35;97636.34;;;15.83;65.71
46614;BME280;32338;50.430;6.806;2022-07-06T10:40:02;97642.44;;;15.77;69.33
46614;BME280;32338;50.430;6.806;2022-07-06T10:42:48;97644.88;;;15.65;68.82
46614;BME280;32338;50.430;6.806;2022-07-06T10:45:50;97641.28;;;15.45;64.41
46614;BME280;32338;50.430;6.806;2022-07-06T10:48:19;97643.00;;;15.59;66.32
46614;BME280;32338;50.430;6.806;2022-07-06T10:50:51;97647.72;;;15.64;66.06
46614;BME280;32338;50.430;6.806;2022-07-06T10:53:22;97649.19;;;15.73;66.85
46614;BME280;32338;50.430;6.806;2022-07-06T10:55:50;97644.97;;;15.85;65.07
46614;BME280;32338;50.430;6.806;2022-07-06T11:01:27;97645.44;;;16.09;71.88
46614;BME280;32338;50.430;6.806;2022-07-06T11:04:05;97651.00;;;16.28;64.83
46614;BME280;32338;50.430;6.806;2022-07-06T11:06:34;97648.56;;;16.40;67.80
46614;BME280;32338;50.430;6.806;2022-07-06T11:09:01;97648.75;;;16.38;67.91
46614;BME280;32338;50.430;6.806;2022-07-06T11:11:39;97644.25;;;16.72;67.66
46614;BME280;32338;50.430;6.806;2022-07-06T11:14:08;97640.97;;;16.83;65.90
46614;BME280;32338;50.430;6.806;2022-07-06T11:16:39;97639.31;;;17.09;67.24
46614;BME280;32338;50.430;6.806;2022-07-06T11:19:08;97633.56;;;17.12;63.15
46614;BME280;32338;50.430;6.806;2022-07-06T11:21:38;97629.84;;;17.20;61.20
46614;BME280;32338;50.430;6.806;2022-07-06T11:24:06;97632.13;;;17.16;62.16
46614;BME280;32338;50.430;6.806;2022-07-06T11:26:34;97631.72;;;17.13;61.53
46614;BME280;32338;50.430;6.806;2022-07-06T11:29:03;97628.22;;;17.19;63.90
46614;BME280;32338;50.430;6.806;2022-07-06T11:31:33;97635.19;;;17.13;58.33
46614;BME280;32338;50.430;6.806;2022-07-06T11:34:02;97631.81;;;17.45;61.76
46614;BME280;32338;50.430;6.806;2022-07-06T11:36:29;97633.69;;;17.44;63.44
46614;BME280;32338;50.430;6.806;2022-07-06T11:38:55;97642.94;;;17.42;62.60
46614;BME280;32338;50.430;6.806;2022-07-06T11:41:22;97632.72;;;17.25;63.72
46614;BME280;32338;50.430;6.806;2022-07-06T11:43:49;97629.81;;;17.40;62.36
46614;BME280;32338;50.430;6.806;2022-07-06T11:46:24;97626.91;;;17.87;67.83
46614;BME280;32338;50.430;6.806;2022-07-06T11:48:53;97626.47;;;18.29;64.97
46614;BME280;32338;50.430;6.806;2022-07-06T11:51:22;97632.06;;;18.53;57.05
46614;BME280;32338;50.430;6.806;2022-07-06T11:53:51;97623.47;;;18.19;53.84
46614;BME280;32338;50.430;6.806;2022-07-06T11:56:19;97623.75;;;18.04;59.26
46614;BME280;32338;50.430;6.806;2022-07-06T11:58:48;97626.47;;;18.29;61.44
46614;BME280;32338;50.430;6.806;2022-07-06T12:01:15;97628.72;;;18.32;60.23
46614;BME280;32338;50.430;6.806;2022-07-06T12:03:43;97627.47;;;18.35;56.80
46614;BME280;32338;50.430;6.806;2022-07-06T12:06:15;97614.63;;;18.18;58.67
46614;BME280;32338;50.430;6.806;2022-07-06T12:08:45;97623.97;;;18.02;61.73
46614;BME280;32338;50.430;6.806;2022-07-06T12:11:23;97625.66;;;17.96;59.13
46614;BME280;32338;50.430;6.806;2022-07-06T12:13:51;97615.50;;;18.05;61.03
46614;BME280;32338;50.430;6.806;2022-07-06T12:16:18;97613.72;;;17.92;60.87
46614;BME280;32338;50.430;6.806;2022-07-06T12:18:47;97622.28;;;17.69;58.05
46614;BME280;32338;50.430;6.806;2022-07-06T12:21:15;97616.44;;;17.86;61.50
46614;BME280;32338;50.430;6.806;2022-07-06T12:23:46;97612.91;;;18.56;61.83
46614;BME280;32338;50.430;6.806;2022-07-06T12:26:15;97610.81;;;19.08;56.11
46614;BME280;32338;50.430;6.806;2022-07-06T12:28:42;97611.31;;;19.17;55.51
46614;BME280;32338;50.430;6.806;2022-07-06T12:31:09;97615.13;;;19.09;55.74
46614;BME280;32338;50.430;6.806;2022-07-06T12:33:56;97608.72;;;18.85;53.21
46614;BME280;32338;50.430;6.806;2022-07-06T12:36:25;97604.03;;;18.55;54.65
46614;BME280;32338;50.430;6.806;2022-07-06T12:38:54;97596.53;;;18.45;55.45
46614;BME280;32338;50.430;6.806;2022-07-06T12:41:28;97608.25;;;18.44;59.61
46614;BME280;32338;50.430;6.806;2022-07-06T12:44:04;97606.84;;;18.42;61.27
46614;BME280;32338;50.430;6.806;2022-07-06T12:46:34;97604.78;;;18.69;61.03
46614;BME280;32338;50.430;6.806;2022-07-06T12:49:10;97606.19;;;18.72;57.75
46614;BME280;32338;50.430;6.806;2022-07-06T12:51:55;97596.84;;;18.56;56.29
46614;BME280;32338;50.430;6.806;2022-07-06T12:54:25;97588.47;;;18.96;62.91
46614;BME280;32338;50.430;6.806;2022-07-06T12:57:00;97600.38;;;19.00;60.64
46614;BME280;32338;50.430;6.806;2022-07-06T12:59:28;97601.78;;;18.77;56.68
46614;BME280;32338;50.430;6.806;2022-07-06T13:01:56;97603.22;;;18.80;58.93
46614;BME280;32338;50.430;6.806;2022-07-06T13:04:23;97609.94;;;18.89;55.63
46614;BME280;32338;50.430;6.806;2022-07-06T13:06:50;97597.50;;;19.02;60.17
46614;BME280;32338;50.430;6.806;2022-07-06T13:09:17;97599.88;;;18.85;59.35
46614;BME280;32338;50.430;6.806;2022-07-06T13:11:46;97594.50;;;18.66;53.11
46614;BME280;32338;50.430;6.806;2022-07-06T13:14:13;97589.63;;;18.56;55.25
46614;BME280;32338;50.430;6.806;2022-07-06T13:16:39;97585.75;;;18.77;55.73
46614;BME280;32338;50.430;6.806;2022-07-06T13:19:06;97575.34;;;18.69;56.83
46614;BME280;32338;50.430;6.806;2022-07-06T13:21:35;97574.59;;;18.80;58.63
46614;BME280;32338;50.430;6.806;2022-07-06T13:24:02;97573.91;;;18.67;54.75